createdAt,value
2022-12-05T00:02:14.627Z,98996.56
2022-12-05T00:04:44.338Z,98989.41
2022-12-05T00:07:14.209Z,98993.31
2022-12-05T00:09:42.247Z,98993.25
2022-12-05T00:12:12.271Z,98994.78
2022-12-05T00:14:40.797Z,98996.75
2022-12-05T00:17:09.453Z,98993.03
2022-12-05T00:19:38.035Z,98997.47
2022-12-05T00:22:06.536Z,98994.13
2022-12-05T00:24:36.518Z,98993.34
2022-12-05T00:27:06.766Z,98996.81
2022-12-05T00:29:34.995Z,99007.03
2022-12-05T00:32:03.290Z,99001.09
2022-12-05T00:34:31.734Z,98998.16
2022-12-05T00:37:00.934Z,99001.78
2022-12-05T00:39:29.270Z,99000.75
2022-12-05T00:41:58.881Z,98995.53
2022-12-05T00:44:27.192Z,98998.16
2022-12-05T00:46:55.413Z,99006.16
2022-12-05T00:49:26.110Z,99000.75
2022-12-05T00:51:54.235Z,99002.66
2022-12-05T00:54:22.698Z,99002.44
2022-12-05T00:56:52.683Z,99010.22
2022-12-05T00:59:22.702Z,99005.00
2022-12-05T01:01:52.657Z,99009.84
2022-12-05T01:04:24.649Z,99015.00
2022-12-05T01:06:56.669Z,99015.28
2022-12-05T01:09:26.694Z,99018.28
2022-12-05T01:11:55.160Z,99024.16
2022-12-05T01:14:26.931Z,99029.31
2022-12-05T01:16:58.228Z,99029.19
2022-12-05T01:19:32.778Z,99036.31
2022-12-05T01:22:01.690Z,99041.22
2022-12-05T01:24:30.979Z,99047.25
2022-12-05T01:26:59.192Z,99053.94
2022-12-05T01:29:29.700Z,99049.09
2022-12-05T01:31:58.656Z,99044.91
2022-12-05T01:34:27.303Z,99039.84
2022-12-05T01:36:55.568Z,99043.25
2022-12-05T01:39:24.929Z,99049.22
2022-12-05T01:41:53.514Z,99053.03
2022-12-05T01:44:58.896Z,99057.31
2022-12-05T01:47:32.346Z,99049.16
2022-12-05T01:50:01.518Z,99049.47
2022-12-05T01:52:33.049Z,99050.25
2022-12-05T01:55:07.470Z,99046.66
2022-12-05T01:57:38.792Z,99045.34
2022-12-05T02:00:11.683Z,99047.22
2022-12-05T02:02:44.082Z,99050.22
2022-12-05T02:05:18.785Z,99049.50
2022-12-05T02:07:48.707Z,99055.56
2022-12-05T02:10:17.823Z,99054.84
2022-12-05T02:12:47.174Z,99053.75
2022-12-05T02:15:38.358Z,99052.22
2022-12-05T02:18:26.370Z,99057.38
2022-12-05T02:21:11.346Z,99055.03
2022-12-05T02:24:10.823Z,99057.75
2022-12-05T02:26:54.392Z,99052.34
2022-12-05T02:30:01.577Z,99062.19
2022-12-05T02:32:52.416Z,99066.41
2022-12-05T02:35:36.775Z,99057.03
2022-12-05T02:38:19.740Z,99058.84
2022-12-05T02:40:56.810Z,99064.06
2022-12-05T02:43:31.946Z,99060.78
2022-12-05T02:46:06.920Z,99058.16
2022-12-05T02:48:36.462Z,99067.16
2022-12-05T02:51:07.917Z,99061.03
2022-12-05T02:53:42.030Z,99060.00
2022-12-05T02:56:11.238Z,99055.28
2022-12-05T02:58:45.971Z,99057.59
2022-12-05T03:01:16.374Z,99048.03
2022-12-05T03:03:45.254Z,99048.19
2022-12-05T03:06:15.846Z,99055.13
2022-12-05T03:08:49.075Z,99049.50
2022-12-05T03:11:18.124Z,99049.59
2022-12-05T03:13:50.674Z,99047.19
2022-12-05T03:16:26.026Z,99048.75
2022-12-05T03:18:58.758Z,99038.44
2022-12-05T03:21:32.885Z,99046.38
2022-12-05T03:24:06.748Z,99048.19
2022-12-05T03:26:48.311Z,99043.63
2022-12-05T03:29:28.325Z,99050.66
2022-12-05T03:32:07.437Z,99048.88
2022-12-05T03:34:53.108Z,99049.00
2022-12-05T03:37:28.837Z,99051.66
2022-12-05T03:40:11.121Z,99061.03
2022-12-05T03:42:46.398Z,99053.19
2022-12-05T03:45:22.058Z,99055.00
2022-12-05T03:47:58.589Z,99057.56
2022-12-05T03:50:29.412Z,99057.50
2022-12-05T03:53:20.316Z,99056.84
2022-12-05T03:55:57.321Z,99055.75
2022-12-05T03:58:32.989Z,99061.81
2022-12-05T04:01:03.297Z,99058.25
2022-12-05T04:03:40.587Z,99059.22
2022-12-05T04:06:15.569Z,99056.66
2022-12-05T04:08:50.733Z,99070.75
2022-12-05T04:11:24.438Z,99069.72
2022-12-05T04:13:55.829Z,99066.19
2022-12-05T04:16:44.778Z,99073.28
2022-12-05T04:19:19.842Z,99069.72
2022-12-05T04:21:50.800Z,99080.16
2022-12-05T04:24:40.492Z,99089.91
2022-12-05T04:27:22.600Z,99085.41
2022-12-05T04:29:59.360Z,99089.91
2022-12-05T04:32:34.447Z,99099.56
2022-12-05T04:35:10.939Z,99101.06
2022-12-05T04:37:44.415Z,99112.03
2022-12-05T04:40:20.152Z,99110.16
2022-12-05T04:42:51.250Z,99125.50
2022-12-05T04:45:22.629Z,99121.81
2022-12-05T04:47:55.207Z,99128.69
2022-12-05T04:50:30.508Z,99125.50
2022-12-05T04:53:01.857Z,99130.66
2022-12-05T04:55:34.243Z,99131.34
2022-12-05T04:58:09.198Z,99129.47
2022-12-05T05:00:48.502Z,99127.66
2022-12-05T05:03:27.514Z,99123.53
2022-12-05T05:05:59.438Z,99124.19
2022-12-05T05:08:29.836Z,99129.19
2022-12-05T05:11:10.995Z,99127.16
2022-12-05T05:13:39.304Z,99131.41
2022-12-05T05:16:09.052Z,99132.31
2022-12-05T05:18:38.495Z,99135.69
2022-12-05T05:21:17.006Z,99125.22
2022-12-05T05:23:45.110Z,99129.59
2022-12-05T05:26:15.517Z,99139.09
2022-12-05T05:28:44.239Z,99143.63
2022-12-05T05:31:13.075Z,99152.03
2022-12-05T05:33:41.627Z,99148.19
2022-12-05T05:36:14.758Z,99150.22
2022-12-05T05:38:46.182Z,99146.81
2022-12-05T05:41:15.685Z,99149.94
2022-12-05T05:43:44.188Z,99148.16
2022-12-05T05:46:14.193Z,99149.38
2022-12-05T05:48:42.918Z,99155.41
2022-12-05T05:51:14.527Z,99152.84
2022-12-05T05:53:43.555Z,99156.38
2022-12-05T05:56:18.653Z,99151.44
2022-12-05T05:58:50.288Z,99155.88
2022-12-05T06:01:21.735Z,99160.84
2022-12-05T06:03:51.394Z,99157.56
2022-12-05T06:06:22.570Z,99155.94
2022-12-05T06:08:51.994Z,99164.25
2022-12-05T06:11:26.204Z,99156.41
2022-12-05T06:13:56.706Z,99155.75
2022-12-05T06:16:25.327Z,99152.59
2022-12-05T06:18:54.096Z,99155.75
2022-12-05T06:21:24.729Z,99156.78
2022-12-05T06:23:54.371Z,99161.69
2022-12-05T06:26:24.142Z,99172.81
2022-12-05T06:28:53.086Z,99174.91
2022-12-05T06:31:24.179Z,99173.25
2022-12-05T06:33:52.325Z,99178.53
2022-12-05T06:36:22.850Z,99183.50
2022-12-05T06:38:53.388Z,99190.06
2022-12-05T06:41:24.566Z,99190.59
2022-12-05T06:44:01.915Z,99187.75
2022-12-05T06:46:30.724Z,99194.63
2022-12-05T06:49:01.342Z,99196.06
2022-12-05T06:51:31.203Z,99204.81
2022-12-05T06:54:00.707Z,99200.75
2022-12-05T06:56:29.425Z,99214.50
2022-12-05T06:58:57.573Z,99217.13
2022-12-05T07:01:42.707Z,99219.22
2022-12-05T07:04:16.168Z,99217.13
2022-12-05T07:06:50.144Z,99216.97
2022-12-05T07:09:22.238Z,99226.28
2022-12-05T07:11:52.542Z,99225.47
2022-12-05T07:17:09.052Z,99224.66
2022-12-05T07:19:37.809Z,99230.72
2022-12-05T07:22:09.466Z,99235.97
2022-12-05T07:24:43.443Z,99245.25
2022-12-05T07:27:11.619Z,99241.03
2022-12-05T07:29:43.011Z,99244.44
2022-12-05T07:32:11.269Z,99239.88
2022-12-05T07:34:40.666Z,99241.81
2022-12-05T07:37:09.147Z,99241.97
2022-12-05T07:39:37.493Z,99240.78
2022-12-05T07:42:07.887Z,99240.22
2022-12-05T07:44:36.464Z,99241.66
2022-12-05T07:47:05.233Z,99252.53
2022-12-05T07:49:34.316Z,99249.72
2022-12-05T07:52:03.710Z,99251.38
2022-12-05T07:54:32.432Z,99263.38
2022-12-05T07:57:00.808Z,99256.31
2022-12-05T07:59:30.847Z,99254.56
2022-12-05T08:01:59.245Z,99259.53
2022-12-05T08:04:28.274Z,99258.56
2022-12-05T08:06:56.673Z,99258.66
2022-12-05T08:09:24.914Z,99265.59
2022-12-05T08:11:53.114Z,99266.88
2022-12-05T08:14:21.848Z,99267.56
2022-12-05T08:16:52.138Z,99264.72
2022-12-05T08:19:20.382Z,99269.41
2022-12-05T08:21:52.548Z,99266.09
2022-12-05T08:24:20.814Z,99267.53
2022-12-05T08:26:49.136Z,99268.31
2022-12-05T08:29:21.523Z,99276.88
2022-12-05T08:31:52.990Z,99279.84
2022-12-05T08:34:22.501Z,99284.44
2022-12-05T08:36:53.640Z,99293.00
2022-12-05T08:39:22.192Z,99288.59
2022-12-05T08:41:51.087Z,99286.72
2022-12-05T08:44:19.886Z,99301.38
2022-12-05T08:46:51.610Z,99298.94
2022-12-05T08:49:20.169Z,99307.91
2022-12-05T08:51:48.551Z,99318.09
2022-12-05T08:54:17.555Z,99314.63
2022-12-05T08:56:45.812Z,99311.91
2022-12-05T08:59:15.705Z,99319.84
2022-12-05T09:01:44.285Z,99318.66
2022-12-05T09:04:14.066Z,99315.53
2022-12-05T09:06:42.925Z,99305.38
2022-12-05T09:09:15.676Z,99305.03
2022-12-05T09:11:49.011Z,99308.19
2022-12-05T09:14:17.297Z,99313.28
2022-12-05T09:16:48.134Z,99316.91
2022-12-05T09:19:21.086Z,99312.75
2022-12-05T09:21:49.299Z,99325.09
2022-12-05T09:24:17.894Z,99328.41
2022-12-05T09:26:48.246Z,99332.25
2022-12-05T09:29:17.781Z,99322.84
2022-12-05T09:31:48.654Z,99330.41
2022-12-05T09:34:20.279Z,99327.69
2022-12-05T09:37:01.363Z,99327.06
2022-12-05T09:39:38.935Z,99337.31
2022-12-05T09:42:25.888Z,99331.59
2022-12-05T09:45:06.015Z,99331.63
2022-12-05T09:47:42.976Z,99341.03
2022-12-05T09:50:21.622Z,99341.66
2022-12-05T09:53:06.576Z,99336.06
2022-12-05T09:55:45.332Z,99334.88
2022-12-05T09:58:22.983Z,99339.16
2022-12-05T10:00:54.913Z,99338.06
2022-12-05T10:03:30.966Z,99333.34
2022-12-05T10:06:14.238Z,99331.34
2022-12-05T10:09:07.179Z,99330.38
2022-12-05T10:11:43.120Z,99327.72
2022-12-05T10:14:22.601Z,99325.72
2022-12-05T10:16:56.487Z,99326.84
2022-12-05T10:19:30.356Z,99329.53
2022-12-05T10:22:07.196Z,99336.06
2022-12-05T10:24:40.151Z,99332.03
2022-12-05T10:27:17.266Z,99329.31
2022-12-05T10:29:50.716Z,99338.47
2022-12-05T10:32:24.523Z,99330.00
2022-12-05T10:34:56.820Z,99332.84
2022-12-05T10:37:30.924Z,99331.41
2022-12-05T10:40:00.267Z,99341.09
2022-12-05T10:42:33.432Z,99331.06
2022-12-05T10:45:05.556Z,99334.75
2022-12-05T10:47:35.040Z,99333.97
2022-12-05T10:50:06.659Z,99324.25
2022-12-05T10:52:37.525Z,99332.25
2022-12-05T10:55:09.709Z,99331.47
2022-12-05T10:57:38.014Z,99336.25
2022-12-05T11:00:13.360Z,99328.06
2022-12-05T11:02:49.361Z,99327.63
2022-12-05T11:05:31.808Z,99332.53
2022-12-05T11:08:01.848Z,99332.31
2022-12-05T11:10:36.012Z,99336.94
2022-12-05T11:13:16.538Z,99329.06
2022-12-05T11:15:52.288Z,99330.00
2022-12-05T11:18:30.186Z,99327.94
2022-12-05T11:21:09.603Z,99333.44
2022-12-05T11:23:39.765Z,99332.16
2022-12-05T11:26:20.066Z,99324.84
2022-12-05T11:28:50.688Z,99332.84
2022-12-05T11:31:27.253Z,99321.25
2022-12-05T11:34:16.731Z,99315.38
2022-12-05T11:36:50.096Z,99307.59
2022-12-05T11:39:19.941Z,99315.59
2022-12-05T11:42:16.673Z,99304.03
2022-12-05T11:45:18.987Z,99307.09
2022-12-05T11:48:25.456Z,99304.69
2022-12-05T11:51:11.639Z,99293.72
2022-12-05T11:54:00.799Z,99298.38
2022-12-05T11:56:38.622Z,99296.84
2022-12-05T11:59:30.862Z,99295.69
2022-12-05T12:02:10.456Z,99298.00
2022-12-05T12:04:56.641Z,99296.41
2022-12-05T12:07:46.319Z,99293.47
2022-12-05T12:10:26.039Z,99295.63
2022-12-05T12:13:10.302Z,99295.44
2022-12-05T12:15:53.555Z,99299.16
2022-12-05T12:18:41.137Z,99301.53
2022-12-05T12:21:19.066Z,99307.97
2022-12-05T12:24:01.804Z,99301.94
2022-12-05T12:26:47.102Z,99290.44
2022-12-05T12:29:32.324Z,99305.53
2022-12-05T12:32:16.682Z,99311.28
2022-12-05T12:35:01.349Z,99298.84
2022-12-05T12:37:38.878Z,99309.28
2022-12-05T12:40:15.785Z,99298.66
2022-12-05T12:42:58.335Z,99299.44
2022-12-05T12:45:53.238Z,99304.63
2022-12-05T12:48:40.260Z,99304.13
2022-12-05T12:51:15.376Z,99296.66
2022-12-05T12:54:08.056Z,99290.19
2022-12-05T12:56:48.449Z,99296.56
2022-12-05T12:59:41.983Z,99285.25
2022-12-05T13:02:20.852Z,99290.19
2022-12-05T13:04:54.417Z,99291.16
2022-12-05T13:07:28.308Z,99292.44
2022-12-05T13:10:01.736Z,99290.31
2022-12-05T13:12:35.480Z,99286.22
2022-12-05T13:15:13.152Z,99295.47
2022-12-05T13:17:46.973Z,99295.19
2022-12-05T13:20:18.264Z,99291.97
2022-12-05T13:22:47.519Z,99296.59
2022-12-05T13:25:17.383Z,99290.13
2022-12-05T13:27:57.281Z,99292.63
2022-12-05T13:30:28.553Z,99295.50
2022-12-05T13:33:13.341Z,99298.47
2022-12-05T13:35:59.617Z,99305.16
2022-12-05T13:38:48.381Z,99303.09
2022-12-05T13:41:43.235Z,99304.19
2022-12-05T13:44:15.474Z,99307.31
2022-12-05T13:46:45.080Z,99304.69
2022-12-05T13:49:34.461Z,99305.00
2022-12-05T13:52:09.723Z,99306.56
2022-12-05T13:54:45.931Z,99305.78
2022-12-05T13:57:50.432Z,99308.44
2022-12-05T14:00:28.112Z,99306.19
2022-12-05T14:02:59.687Z,99306.28
2022-12-05T14:05:45.338Z,99305.44
2022-12-05T14:08:49.310Z,99299.50
2022-12-05T14:11:18.608Z,99312.13
2022-12-05T14:13:50.351Z,99308.13
2022-12-05T14:17:01.601Z,99312.31
2022-12-05T14:19:56.069Z,99319.13
2022-12-05T14:22:56.938Z,99312.13
2022-12-05T14:26:08.939Z,99322.84
2022-12-05T14:28:58.260Z,99323.34
2022-12-05T14:31:42.662Z,99321.63
2022-12-05T14:34:26.162Z,99320.22
2022-12-05T14:37:00.476Z,99321.88
2022-12-05T14:39:39.735Z,99321.13
2022-12-05T14:42:22.684Z,99331.13
2022-12-05T14:44:58.052Z,99320.63
2022-12-05T14:47:31.125Z,99331.41
2022-12-05T14:50:04.648Z,99330.34
2022-12-05T14:52:39.057Z,99335.56
2022-12-05T14:55:14.411Z,99331.28
2022-12-05T14:57:49.255Z,99338.97
2022-12-05T15:00:26.307Z,99328.13
2022-12-05T15:02:58.666Z,99325.56
2022-12-05T15:05:29.192Z,99336.47
2022-12-05T15:07:59.926Z,99336.63
2022-12-05T15:10:36.387Z,99340.25
2022-12-05T15:13:10.347Z,99343.47
2022-12-05T15:15:45.581Z,99345.53
2022-12-05T15:18:22.631Z,99347.28
2022-12-05T15:20:58.593Z,99352.75
2022-12-05T15:23:40.408Z,99352.63
2022-12-05T15:26:45.550Z,99363.16
2022-12-05T15:29:10.614Z,99359.47
2022-12-05T15:31:47.282Z,99362.81
2022-12-05T15:34:23.166Z,99363.63
2022-12-05T15:36:57.057Z,99359.00
2022-12-05T15:39:31.089Z,99357.25
2022-12-05T15:42:02.863Z,99360.78
2022-12-05T15:44:37.588Z,99363.44
2022-12-05T15:47:22.454Z,99377.91
2022-12-05T15:49:51.271Z,99377.28
2022-12-05T15:52:32.059Z,99378.06
2022-12-05T15:55:04.804Z,99370.28
2022-12-05T15:57:39.307Z,99379.03
2022-12-05T16:00:18.394Z,99376.47
2022-12-05T16:02:54.420Z,99377.41
2022-12-05T16:05:29.271Z,99382.41
2022-12-05T16:07:57.675Z,99382.50
2022-12-05T16:10:29.540Z,99382.34
2022-12-05T16:13:04.303Z,99391.16
2022-12-05T16:15:33.042Z,99383.59
2022-12-05T16:18:06.231Z,99381.75
2022-12-05T16:20:36.840Z,99374.22
2022-12-05T16:23:08.643Z,99382.41
2022-12-05T16:25:38.112Z,99389.34
2022-12-05T16:28:18.246Z,99384.00
2022-12-05T16:30:58.689Z,99380.28
2022-12-05T16:33:31.349Z,99381.16
2022-12-05T16:36:12.048Z,99385.97
2022-12-05T16:38:43.430Z,99383.88
2022-12-05T16:41:12.612Z,99389.47
2022-12-05T16:43:46.876Z,99389.22
2022-12-05T16:46:44.368Z,99388.78
2022-12-05T16:49:21.094Z,99395.25
2022-12-05T16:52:00.179Z,99390.13
2022-12-05T16:54:28.274Z,99389.06
2022-12-05T16:56:57.557Z,99390.75
2022-12-05T16:59:32.218Z,99390.56
2022-12-05T17:02:02.104Z,99386.84
2022-12-05T17:04:32.436Z,99387.34
2022-12-05T17:07:00.978Z,99398.38
2022-12-05T17:09:29.125Z,99393.91
2022-12-05T17:12:04.626Z,99390.97
2022-12-05T17:14:34.123Z,99393.03
2022-12-05T17:17:02.218Z,99390.13
2022-12-05T17:19:33.352Z,99398.56
2022-12-05T17:22:03.174Z,99391.63
2022-12-05T17:24:32.934Z,99390.97
2022-12-05T17:27:03.909Z,99402.03
2022-12-05T17:29:35.864Z,99396.28
2022-12-05T17:32:04.613Z,99399.47
2022-12-05T17:34:34.674Z,99395.66
2022-12-05T17:37:04.488Z,99399.50
2022-12-05T17:39:33.737Z,99399.59
2022-12-05T17:42:02.132Z,99405.59
2022-12-05T17:44:30.686Z,99408.94
2022-12-05T17:47:07.696Z,99394.13
2022-12-05T17:49:40.615Z,99397.38
2022-12-05T17:52:21.480Z,99405.91
2022-12-05T17:54:54.793Z,99405.16
2022-12-05T17:57:23.484Z,99399.13
2022-12-05T17:59:51.982Z,99400.81
2022-12-05T18:02:20.405Z,99400.25
2022-12-05T18:04:49.995Z,99407.81
2022-12-05T18:07:19.079Z,99401.72
2022-12-05T18:09:47.426Z,99402.22
2022-12-05T18:12:16.013Z,99405.88
2022-12-05T18:14:44.415Z,99402.63
2022-12-05T18:17:12.766Z,99410.53
2022-12-05T18:19:41.295Z,99408.81
2022-12-05T18:22:14.651Z,99406.59
2022-12-05T18:24:45.871Z,99412.34
2022-12-05T18:27:14.442Z,99408.69
2022-12-05T18:29:43.026Z,99403.59
2022-12-05T18:32:11.485Z,99411.41
2022-12-05T18:34:40.388Z,99406.81
2022-12-05T18:37:08.786Z,99410.72
2022-12-05T18:39:39.203Z,99418.69
2022-12-05T18:42:15.517Z,99415.16
2022-12-05T18:44:44.635Z,99419.09
2022-12-05T18:47:12.954Z,99411.84
2022-12-05T18:49:41.458Z,99411.69
2022-12-05T18:52:10.395Z,99411.59
2022-12-05T18:54:40.674Z,99407.34
2022-12-05T18:57:09.233Z,99413.94
2022-12-05T18:59:38.916Z,99411.63
2022-12-05T19:02:07.316Z,99415.31
2022-12-05T19:04:36.149Z,99410.78
2022-12-05T19:07:04.387Z,99405.47
2022-12-05T19:09:33.778Z,99409.88
2022-12-05T19:12:03.417Z,99405.34
2022-12-05T19:14:35.526Z,99408.50
2022-12-05T19:17:04.941Z,99408.03
2022-12-05T19:19:33.745Z,99415.22
2022-12-05T19:22:02.274Z,99414.09
2022-12-05T19:24:31.274Z,99415.88
2022-12-05T19:26:59.885Z,99413.50
2022-12-05T19:29:29.993Z,99416.88
2022-12-05T19:31:58.496Z,99419.72
2022-12-05T19:34:26.852Z,99415.09
2022-12-05T19:36:55.844Z,99427.72
2022-12-05T19:39:27.064Z,99429.97
2022-12-05T19:41:57.737Z,99420.41
2022-12-05T19:44:26.792Z,99423.78
2022-12-05T19:46:57.335Z,99419.69
2022-12-05T19:49:26.352Z,99423.63
2022-12-05T19:51:57.171Z,99429.19
2022-12-05T19:54:27.881Z,99423.31
2022-12-05T19:56:59.012Z,99425.59
2022-12-05T19:59:29.135Z,99422.56
2022-12-05T20:01:59.266Z,99430.53
2022-12-05T20:04:27.840Z,99419.72
2022-12-05T20:06:56.480Z,99427.28
2022-12-05T20:09:25.875Z,99428.97
2022-12-05T20:11:56.035Z,99442.03
2022-12-05T20:14:25.734Z,99430.63
2022-12-05T20:16:54.687Z,99430.69
2022-12-05T20:19:25.216Z,99428.75
2022-12-05T20:21:55.615Z,99443.03
2022-12-05T20:24:23.846Z,99432.78
2022-12-05T20:26:53.117Z,99431.69
2022-12-05T20:29:21.318Z,99432.84
2022-12-05T20:31:52.343Z,99432.34
2022-12-05T20:34:20.898Z,99435.69
2022-12-05T20:36:50.514Z,99434.63
2022-12-05T20:39:19.399Z,99431.69
2022-12-05T20:41:51.171Z,99426.91
2022-12-05T20:44:22.507Z,99430.19
2022-12-05T20:46:52.054Z,99431.19
2022-12-05T20:49:21.064Z,99430.78
2022-12-05T20:51:51.658Z,99435.44
2022-12-05T20:54:20.053Z,99428.38
2022-12-05T20:56:49.352Z,99432.56
2022-12-05T20:59:18.101Z,99432.88
2022-12-05T21:01:47.693Z,99431.22
2022-12-05T21:04:16.259Z,99426.78
2022-12-05T21:06:46.781Z,99425.00
2022-12-05T21:09:26.432Z,99427.09
2022-12-05T21:11:55.887Z,99422.56
2022-12-05T21:14:25.885Z,99425.59
2022-12-05T21:16:56.580Z,99419.28
2022-12-05T21:19:25.789Z,99428.06
2022-12-05T21:21:55.631Z,99422.81
2022-12-05T21:24:25.826Z,99416.78
2022-12-05T21:26:55.635Z,99410.63
2022-12-05T21:29:24.081Z,99412.28
2022-12-05T21:31:54.066Z,99410.78
2022-12-05T21:34:26.268Z,99407.97
2022-12-05T21:36:54.506Z,99408.63
2022-12-05T21:39:22.934Z,99412.88
2022-12-05T21:41:52.915Z,99403.91
2022-12-05T21:44:21.771Z,99407.72
2022-12-05T21:46:51.713Z,99414.28
2022-12-05T21:49:20.224Z,99412.56
2022-12-05T21:51:51.152Z,99402.88
2022-12-05T21:54:19.687Z,99407.78
2022-12-05T21:56:47.998Z,99415.25
2022-12-05T21:59:17.647Z,99420.31
2022-12-05T22:01:47.746Z,99411.59
2022-12-05T22:04:16.351Z,99417.53
2022-12-05T22:06:44.519Z,99419.97
2022-12-05T22:09:13.250Z,99421.84
2022-12-05T22:11:41.902Z,99419.91
2022-12-05T22:14:10.710Z,99422.47
2022-12-05T22:16:41.241Z,99423.38
2022-12-05T22:19:09.591Z,99417.50
2022-12-05T22:21:38.103Z,99413.06
2022-12-05T22:24:07.725Z,99413.63
2022-12-05T22:26:35.881Z,99408.78
2022-12-05T22:29:04.351Z,99412.63
2022-12-05T22:31:33.202Z,99413.13
2022-12-05T22:34:05.090Z,99406.81
2022-12-05T22:36:33.777Z,99406.69
2022-12-05T22:39:03.451Z,99397.78
2022-12-05T22:41:32.656Z,99402.94
2022-12-05T22:44:03.950Z,99402.94
2022-12-05T22:46:33.140Z,99400.31
2022-12-05T22:49:05.265Z,99401.84
2022-12-05T22:51:34.239Z,99406.28
2022-12-05T22:54:02.467Z,99403.56
2022-12-05T22:56:31.087Z,99395.59
2022-12-05T22:59:01.052Z,99409.09
2022-12-05T23:01:33.949Z,99397.94
2022-12-05T23:04:05.931Z,99394.34
2022-12-05T23:06:42.391Z,99398.03
2022-12-05T23:09:14.916Z,99387.78
2022-12-05T23:11:44.696Z,99388.88
2022-12-05T23:14:12.959Z,99384.00
2022-12-05T23:16:41.671Z,99380.22
2022-12-05T23:19:12.376Z,99381.44
2022-12-05T23:21:42.257Z,99380.06
2022-12-05T23:24:14.716Z,99386.63
2022-12-05T23:26:47.441Z,99380.75
2022-12-05T23:29:16.371Z,99384.09
2022-12-05T23:31:46.386Z,99388.78
2022-12-05T23:34:17.267Z,99392.88
2022-12-05T23:36:45.835Z,99381.88
2022-12-05T23:39:14.403Z,99376.25
2022-12-05T23:41:44.306Z,99380.06
2022-12-05T23:44:12.806Z,99380.53
2022-12-05T23:46:41.292Z,99374.75
2022-12-05T23:49:11.071Z,99374.19
2022-12-05T23:51:41.723Z,99379.94
2022-12-05T23:54:12.966Z,99380.22
2022-12-05T23:56:42.383Z,99374.94
2022-12-05T23:59:10.961Z,99373.81
